Terminal Aerodrome Forecast
Issued by NWS Midland/Odessa, TX

Current Version | Previous Version | Text Only | Print | Product List | Glossary On
Versions: 1 2 3 4 5 6 7 8 9 10 11 12 13 14 15 16 17 18 19 20 21
000
FTUS44 KMAF 030121 AAB
TAFMAF
TAF AMD
KMAF 030121Z 0301/0324 05014KT 2SM -DZ BR OVC002
      TEMPO 0301/0305 1SM -RA BR OVC008
     FM030500 05015KT 4SM -RA BR OVC008=

USA.gov is the U.S. government's official web portal to all federal, state and local government web resources and services.